Onawa, Iowa
Current Conditions -  °F | °C
As of 2:54 PM on Sunday 23 Nov 2014 (Local Time) from KTQE Reporting Station
Overcast Overcast  
Wind Chill: 37°   Ceiling: 5500
Heat Index: 44°   Visibility: 10mi
Dew Point: 36°   Wind: 14mph
Humidity: 73%   Direction: 340°NNW
Pressure: 29.51"   Gusts: NA
Location:  42.03°N, 96.1°W
Report Text: KTQE 232054Z AUTO 34012KT 10SM BKN055 OVC070 07/02 A2951 RMK AO2 PK WND 34029/2022 RAB15E53 SLP989 P0001 60001 T00670022 50007
Loading
Personal Weather Stations






























Interactive Weather Map New forecast layout! Learn more

10-Day Weather Forecast

Advertisements
Track Severe Weather on mobile